Time;durP1;ratioP1;P1;durP2;ratioP2;P2;SDS_P1;SDS_P2;PMS_P1;PMS_P2;Temp;Humidity;BMP_temperature;BMP_pressure;BME280_temperature;BME280_humidity;BME280_pressure;Samples;Min_cycle;Max_cycle;Signal;HPM_P1;HPM_P2
2024/02/05 00:02:01;;;;;;;2.77;2.10;;;9.00;99.90;;;;;;4975060;28;20162;-70
2024/02/05 00:04:27;;;;;;;2.10;1.80;;;9.10;99.90;;;;;;4973648;28;20266;-70
2024/02/05 00:06:53;;;;;;;1.70;1.47;;;9.00;99.90;;;;;;4981872;28;20193;-71
2024/02/05 00:09:19;;;;;;;1.97;1.80;;;9.00;99.90;;;;;;4983118;28;20428;-71
2024/02/05 00:11:45;;;;;;;1.73;1.63;;;9.00;99.90;;;;;;4975150;28;20175;-70
2024/02/05 00:14:10;;;;;;;2.00;1.80;;;9.00;99.90;;;;;;4975573;28;20804;-70
2024/02/05 00:16:36;;;;;;;1.93;1.73;;;9.00;99.90;;;;;;4975157;28;20612;-71
2024/02/05 00:19:01;;;;;;;4.37;2.13;;;9.00;99.90;;;;;;4974953;28;20173;-71
2024/02/05 00:21:27;;;;;;;2.30;1.50;;;8.80;99.90;;;;;;4990372;28;20182;-71
2024/02/05 00:23:53;;;;;;;1.63;1.53;;;8.80;99.90;;;;;;4994919;28;20204;-71
2024/02/05 00:26:18;;;;;;;1.30;1.20;;;8.80;99.90;;;;;;4995094;28;20175;-71
2024/02/05 00:28:44;;;;;;;1.60;1.20;;;8.80;99.90;;;;;;4994239;28;20203;-71
2024/02/05 00:31:09;;;;;;;1.00;0.90;;;8.90;99.90;;;;;;4994782;28;20628;-71
2024/02/05 00:33:35;;;;;;;1.03;0.93;;;9.00;99.90;;;;;;4994242;28;20172;-69
2024/02/05 00:36:02;;;;;;;1.13;0.87;;;9.20;99.90;;;;;;4994197;28;20189;-71
2024/02/05 00:38:28;;;;;;;0.93;0.70;;;9.30;99.90;;;;;;4994826;28;20195;-70
2024/02/05 00:40:53;;;;;;;0.93;0.80;;;9.40;99.90;;;;;;4994016;28;20409;-70
2024/02/05 00:43:19;;;;;;;0.90;0.70;;;9.30;99.90;;;;;;4997604;28;20175;-71
2024/02/05 00:45:45;;;;;;;0.90;0.80;;;9.30;99.90;;;;;;4998046;28;20174;-71
2024/02/05 00:48:10;;;;;;;1.43;0.87;;;9.40;99.90;;;;;;4996048;28;20206;-71
2024/02/05 00:50:38;;;;;;;1.20;0.83;;;9.40;99.90;;;;;;4978934;28;20183;-71
2024/02/05 00:53:05;;;;;;;1.13;0.77;;;9.40;99.90;;;;;;4977175;28;20580;-70
2024/02/05 00:55:30;;;;;;;1.00;0.83;;;9.40;99.90;;;;;;4977881;28;20490;-70
2024/02/05 00:57:56;;;;;;;1.00;0.90;;;9.60;99.90;;;;;;4978047;28;20426;-70
2024/02/05 01:00:23;;;;;;;1.70;1.10;;;9.60;99.90;;;;;;4996630;28;20176;-70
2024/02/05 01:02:52;;;;;;;2.40;1.73;;;9.60;99.90;;;;;;4997247;28;20196;-70
2024/02/05 01:05:17;;;;;;;3.20;1.90;;;9.60;99.90;;;;;;4997781;28;20412;-70
2024/02/05 01:07:43;;;;;;;1.47;0.97;;;9.70;99.90;;;;;;4995861;28;20532;-71
2024/02/05 01:10:10;;;;;;;1.77;1.00;;;9.80;99.90;;;;;;4978999;28;20177;-71
2024/02/05 01:12:37;;;;;;;1.00;0.73;;;9.80;99.90;;;;;;4977545;28;20203;-70
2024/02/05 01:15:04;;;;;;;1.00;0.73;;;9.90;99.90;;;;;;4977740;28;20578;-70
2024/02/05 01:17:29;;;;;;;0.97;0.70;;;9.90;99.90;;;;;;4976240;28;20928;-71
2024/02/05 01:19:55;;;;;;;1.10;0.80;;;10.10;99.90;;;;;;4992611;28;20426;-70
2024/02/05 01:22:20;;;;;;;1.03;0.77;;;10.10;99.90;;;;;;4997553;28;20294;-70
2024/02/05 01:24:46;;;;;;;0.90;0.67;;;10.20;99.90;;;;;;4997231;28;20174;-71
2024/02/05 01:27:12;;;;;;;0.90;0.70;;;10.00;99.90;;;;;;4995076;28;20192;-71
2024/02/05 01:29:38;;;;;;;0.90;0.60;;;9.80;99.90;;;;;;4984589;28;20256;-70
2024/02/05 01:32:04;;;;;;;1.10;0.77;;;9.70;99.90;;;;;;4977497;28;20662;-70
2024/02/05 01:34:30;;;;;;;1.20;1.00;;;9.90;99.90;;;;;;4978049;28;20408;-70
2024/02/05 01:36:55;;;;;;;1.23;0.83;;;10.00;99.90;;;;;;4976205;28;20464;-70
2024/02/05 01:39:22;;;;;;;1.10;1.00;;;9.90;99.90;;;;;;4987587;28;20207;-71
2024/02/05 01:41:47;;;;;;;0.80;0.80;;;9.80;99.90;;;;;;4996803;28;20167;-70
2024/02/05 01:44:13;;;;;;;0.90;0.80;;;9.70;99.90;;;;;;4995957;28;20938;-70
2024/02/05 01:46:39;;;;;;;1.50;0.87;;;9.70;99.90;;;;;;4996589;28;20293;-71
2024/02/05 01:49:09;;;;;;;0.80;0.70;;;9.70;99.90;;;;;;4988914;28;20172;-70
2024/02/05 01:51:40;;;;;;;1.13;1.00;;;9.70;99.90;;;;;;4977434;28;20203;-70
2024/02/05 01:54:08;;;;;;;1.20;0.70;;;9.70;99.90;;;;;;4977477;28;20735;-71
2024/02/05 01:56:34;;;;;;;0.90;0.70;;;9.70;99.90;;;;;;4977019;28;20459;-71
2024/02/05 01:59:00;;;;;;;0.90;0.77;;;9.60;99.90;;;;;;4983856;28;20410;-70
2024/02/05 02:01:32;;;;;;;0.90;0.70;;;9.60;99.90;;;;;;4977266;28;20811;-71
2024/02/05 02:04:00;;;;;;;1.60;1.10;;;9.50;99.90;;;;;;4977104;28;20148;-71
2024/02/05 02:06:26;;;;;;;1.10;0.87;;;9.60;99.90;;;;;;4976822;28;20428;-71
2024/02/05 02:08:53;;;;;;;1.57;0.87;;;9.60;99.90;;;;;;4983081;28;20820;-70
2024/02/05 02:11:19;;;;;;;3.10;0.80;;;9.60;99.90;;;;;;4995328;28;20922;-71
2024/02/05 02:13:45;;;;;;;1.20;1.00;;;9.60;99.90;;;;;;4996303;28;20487;-71
2024/02/05 02:16:16;;;;;;;1.90;0.90;;;9.60;99.90;;;;;;4995543;28;20209;-71
2024/02/05 02:18:43;;;;;;;1.17;0.77;;;9.60;99.90;;;;;;4997117;28;20419;-70
2024/02/05 02:21:13;;;;;;;1.30;0.70;;;9.50;99.90;;;;;;4994384;28;20412;-71
2024/02/05 02:23:40;;;;;;;1.53;1.10;;;9.60;99.90;;;;;;4996145;28;20470;-71
2024/02/05 02:26:05;;;;;;;1.73;0.80;;;9.60;99.90;;;;;;4996115;28;20482;-70
2024/02/05 02:28:31;;;;;;;1.30;0.90;;;9.50;99.90;;;;;;4996040;28;20398;-71
2024/02/05 02:30:57;;;;;;;1.00;0.90;;;9.40;99.90;;;;;;4996245;28;20560;-69
2024/02/05 02:33:39;;;;;;;1.00;0.70;;;9.40;99.90;;;;;;4996282;28;20175;-70
2024/02/05 02:36:09;;;;;;;1.67;0.60;;;9.50;99.90;;;;;;4996031;28;20205;-71
2024/02/05 02:39:00;;;;;;;1.10;0.67;;;9.40;99.90;;;;;;4991750;28;20417;-70
2024/02/05 02:41:28;;;;;;;1.47;0.93;;;9.50;99.90;;;;;;4976795;28;20399;-71
2024/02/05 02:44:01;;;;;;;1.47;0.73;;;9.50;99.90;;;;;;4976280;28;20404;-71
2024/02/05 02:46:28;;;;;;;4.10;0.80;;;9.50;99.90;;;;;;4976862;28;20950;-71
2024/02/05 02:48:54;;;;;;;1.00;0.80;;;9.50;99.90;;;;;;4981707;28;20444;-71
2024/02/05 02:51:20;;;;;;;1.20;0.80;;;9.50;99.90;;;;;;4995447;28;20432;-71
2024/02/05 02:53:45;;;;;;;1.20;0.70;;;9.50;99.90;;;;;;4996181;28;20441;-71
2024/02/05 02:56:11;;;;;;;1.67;0.70;;;9.50;99.90;;;;;;4995410;28;20733;-71
2024/02/05 02:58:37;;;;;;;1.77;0.80;;;9.40;99.90;;;;;;4992190;28;20177;-71
2024/02/05 03:01:03;;;;;;;1.87;0.80;;;9.30;99.90;;;;;;4976217;28;20221;-71
2024/02/05 03:03:29;;;;;;;0.93;0.70;;;9.40;99.90;;;;;;4975978;28;20169;-70
2024/02/05 03:05:55;;;;;;;1.43;0.93;;;9.40;99.90;;;;;;4976528;28;20409;-71
2024/02/05 03:08:20;;;;;;;2.00;1.20;;;9.50;99.90;;;;;;4974962;28;20439;-70
2024/02/05 03:10:46;;;;;;;2.00;0.80;;;9.50;99.90;;;;;;4994946;28;20253;-70
2024/02/05 03:13:12;;;;;;;1.57;0.90;;;9.50;99.90;;;;;;4995090;28;20250;-71
2024/02/05 03:15:38;;;;;;;1.20;0.70;;;9.70;99.90;;;;;;4995347;28;20284;-71
2024/02/05 03:18:04;;;;;;;1.50;0.73;;;9.80;99.90;;;;;;4995056;28;20421;-71
2024/02/05 03:20:37;;;;;;;0.83;0.70;;;9.80;99.90;;;;;;4977441;28;20253;-71
2024/02/05 03:23:05;;;;;;;1.50;0.70;;;9.90;99.90;;;;;;4976507;28;20937;-70
2024/02/05 03:25:30;;;;;;;1.27;0.73;;;9.70;99.90;;;;;;4974789;28;20480;-71
2024/02/05 03:27:57;;;;;;;1.23;0.70;;;9.80;99.90;;;;;;4976230;28;20436;-71
2024/02/05 03:30:32;;;;;;;1.30;0.63;;;9.70;99.90;;;;;;4991554;28;20614;-71
2024/02/05 03:32:59;;;;;;;2.40;0.73;;;9.90;99.90;;;;;;4995652;28;20415;-71
2024/02/05 03:35:26;;;;;;;3.80;0.83;;;9.70;99.90;;;;;;4995074;28;20478;-70
2024/02/05 03:37:51;;;;;;;0.90;0.53;;;9.80;99.90;;;;;;4993630;28;20428;-71
2024/02/05 03:40:18;;;;;;;1.80;0.70;;;9.70;99.90;;;;;;4979011;28;20786;-71
2024/02/05 03:42:43;;;;;;;1.67;0.80;;;9.70;99.90;;;;;;4975425;28;20169;-70
2024/02/05 03:45:10;;;;;;;0.80;0.60;;;9.70;99.90;;;;;;4975902;28;20824;-71
2024/02/05 03:47:35;;;;;;;2.83;0.80;;;9.80;99.90;;;;;;4975309;28;20224;-70
2024/02/05 03:50:01;;;;;;;1.10;0.77;;;9.80;99.90;;;;;;4989170;28;20413;-71
2024/02/05 03:52:27;;;;;;;1.47;0.97;;;10.00;99.90;;;;;;4994763;28;20220;-71
2024/02/05 03:54:53;;;;;;;1.17;0.50;;;10.10;99.90;;;;;;4988879;28;20554;-71
2024/02/05 03:57:19;;;;;;;0.90;0.60;;;10.20;99.90;;;;;;4975232;28;20200;-70
2024/02/05 03:59:45;;;;;;;1.53;0.70;;;10.20;99.90;;;;;;4986247;28;20168;-71
2024/02/05 04:02:11;;;;;;;1.43;0.60;;;10.10;99.90;;;;;;4995060;28;20411;-71
2024/02/05 04:04:37;;;;;;;1.20;0.60;;;10.20;99.90;;;;;;4996968;28;20557;-71
2024/02/05 04:07:03;;;;;;;1.00;0.70;;;10.30;99.90;;;;;;4995001;28;20226;-71
2024/02/05 04:09:28;;;;;;;1.30;0.70;;;10.10;99.90;;;;;;4989910;28;20458;-71
2024/02/05 04:11:54;;;;;;;1.10;0.77;;;10.10;99.90;;;;;;4995270;28;20177;-71
2024/02/05 04:14:20;;;;;;;1.10;0.60;;;10.10;99.90;;;;;;4994969;28;20172;-71
2024/02/05 04:16:47;;;;;;;0.80;0.60;;;10.00;99.90;;;;;;4998245;28;20287;-70
2024/02/05 04:19:13;;;;;;;1.00;0.70;;;10.00;99.90;;;;;;4991581;28;20409;-70
2024/02/05 04:21:39;;;;;;;0.80;0.60;;;10.20;99.90;;;;;;4978986;28;20489;-71
2024/02/05 04:24:05;;;;;;;1.63;0.60;;;10.10;99.90;;;;;;4979099;28;20272;-70
2024/02/05 04:26:31;;;;;;;1.97;0.80;;;10.20;99.90;;;;;;4977786;28;20230;-71
2024/02/05 04:28:56;;;;;;;0.80;0.50;;;10.20;99.90;;;;;;4982509;28;20415;-71
2024/02/05 04:31:22;;;;;;;0.90;0.70;;;10.30;99.90;;;;;;4999223;28;20646;-70
2024/02/05 04:33:49;;;;;;;0.90;0.50;;;10.20;99.90;;;;;;4998468;28;20236;-70
2024/02/05 04:36:15;;;;;;;0.80;0.50;;;10.00;99.90;;;;;;4998679;28;20273;-70
2024/02/05 04:38:41;;;;;;;0.90;0.50;;;10.10;99.90;;;;;;4998818;28;20894;-70
2024/02/05 04:41:10;;;;;;;1.10;0.60;;;10.10;99.90;;;;;;4998803;28;20403;-71
2024/02/05 04:43:37;;;;;;;0.70;0.40;;;10.20;99.90;;;;;;4997765;28;20406;-70
2024/02/05 04:46:04;;;;;;;0.80;0.50;;;10.20;99.90;;;;;;4998188;28;20430;-69
2024/02/05 04:48:29;;;;;;;0.70;0.50;;;10.40;99.90;;;;;;4997987;28;20424;-71
2024/02/05 04:50:55;;;;;;;1.10;0.60;;;10.60;99.90;;;;;;4978121;28;20522;-70
2024/02/05 04:53:20;;;;;;;1.03;0.60;;;10.60;99.90;;;;;;4978903;28;20169;-70
2024/02/05 04:55:46;;;;;;;2.60;0.83;;;10.40;99.90;;;;;;4977953;28;20231;-70
2024/02/05 04:58:12;;;;;;;1.10;0.60;;;10.50;99.90;;;;;;4977639;28;20188;-70
2024/02/05 05:00:37;;;;;;;1.17;0.60;;;10.20;99.90;;;;;;4995280;28;20171;-71
2024/02/05 05:03:03;;;;;;;1.20;0.73;;;10.30;99.90;;;;;;4996365;28;20272;-70
2024/02/05 05:05:29;;;;;;;0.90;0.80;;;10.20;99.90;;;;;;4995217;28;20207;-70
2024/02/05 05:07:55;;;;;;;1.83;0.60;;;10.30;99.90;;;;;;4996278;28;20472;-70
2024/02/05 05:10:21;;;;;;;1.97;0.70;;;10.30;99.90;;;;;;4982319;28;20459;-70
2024/02/05 05:12:47;;;;;;;1.80;1.10;;;10.20;99.90;;;;;;4977786;28;20435;-71
2024/02/05 05:15:16;;;;;;;1.23;0.80;;;10.20;99.90;;;;;;4977574;28;20544;-70
2024/02/05 05:17:45;;;;;;;1.00;0.80;;;10.20;99.90;;;;;;4977723;28;20247;-70
2024/02/05 05:20:14;;;;;;;1.87;0.83;;;10.20;99.90;;;;;;4977808;28;20401;-70
2024/02/05 05:22:39;;;;;;;3.73;1.43;;;10.00;99.90;;;;;;4978206;28;20407;-71
2024/02/05 05:25:08;;;;;;;1.47;1.00;;;10.10;99.90;;;;;;4977690;28;20418;-71
2024/02/05 05:27:34;;;;;;;1.13;0.80;;;10.10;99.90;;;;;;4976706;28;20195;-71
2024/02/05 05:30:00;;;;;;;1.73;1.00;;;9.80;99.90;;;;;;4989733;28;20788;-70
2024/02/05 05:32:25;;;;;;;1.63;1.00;;;9.80;99.90;;;;;;4995601;28;20217;-70
2024/02/05 05:34:51;;;;;;;1.30;0.73;;;10.00;99.90;;;;;;4996399;28;20536;-71
2024/02/05 05:37:17;;;;;;;1.43;0.90;;;9.90;99.90;;;;;;4996679;28;20237;-71
2024/02/05 05:39:42;;;;;;;1.40;0.90;;;9.80;99.90;;;;;;4986862;28;20412;-71
2024/02/05 05:42:08;;;;;;;1.53;0.77;;;9.80;99.90;;;;;;4977470;28;20162;-71
2024/02/05 05:44:34;;;;;;;1.27;1.10;;;9.80;99.90;;;;;;4975389;28;20621;-71
2024/02/05 05:47:01;;;;;;;2.50;1.07;;;9.70;99.90;;;;;;4977107;28;20303;-71
2024/02/05 05:49:27;;;;;;;2.23;1.10;;;9.60;99.90;;;;;;4984589;28;20483;-71
2024/02/05 05:51:53;;;;;;;2.00;0.97;;;9.60;99.90;;;;;;4995468;28;20440;-71
2024/02/05 05:54:20;;;;;;;3.50;1.47;;;9.60;99.90;;;;;;4996577;28;20172;-70
2024/02/05 05:56:46;;;;;;;2.17;1.17;;;9.70;99.90;;;;;;4996011;28;20460;-71
2024/02/05 05:59:11;;;;;;;1.93;1.17;;;9.80;99.90;;;;;;4991366;28;20440;-70
2024/02/05 06:01:37;;;;;;;2.90;1.10;;;9.80;99.90;;;;;;4977559;28;20403;-70
2024/02/05 06:04:03;;;;;;;1.70;1.10;;;9.80;99.90;;;;;;4977167;28;20178;-71
2024/02/05 06:06:29;;;;;;;0.90;0.70;;;9.80;99.90;;;;;;4990567;28;20683;-72
2024/02/05 06:08:54;;;;;;;2.40;0.90;;;9.70;99.90;;;;;;4993573;28;20644;-71
2024/02/05 06:11:20;;;;;;;1.33;0.80;;;9.60;99.90;;;;;;4987822;28;20703;-71
2024/02/05 06:13:45;;;;;;;0.80;0.70;;;9.60;99.90;;;;;;4994532;28;20179;-70
2024/02/05 06:16:11;;;;;;;1.07;0.70;;;9.70;99.90;;;;;;4994944;28;20607;-71
2024/02/05 06:18:37;;;;;;;2.40;0.83;;;9.80;99.90;;;;;;4996388;28;20206;-71
2024/02/05 06:21:05;;;;;;;0.80;0.60;;;9.80;99.90;;;;;;4976536;28;20175;-70
2024/02/05 06:23:31;;;;;;;1.00;0.60;;;9.80;99.90;;;;;;4976739;28;20197;-70
2024/02/05 06:25:57;;;;;;;0.80;0.60;;;9.90;99.90;;;;;;4976384;28;20436;-72
2024/02/05 06:28:22;;;;;;;1.07;0.80;;;9.90;99.90;;;;;;4976930;28;20285;-72
2024/02/05 06:30:50;;;;;;;1.83;0.90;;;9.90;99.90;;;;;;4994497;28;20758;-71
2024/02/05 06:33:16;;;;;;;1.00;0.80;;;9.90;99.90;;;;;;4995464;28;20171;-71
2024/02/05 06:35:42;;;;;;;1.50;0.70;;;9.80;99.90;;;;;;4995851;28;20449;-70
2024/02/05 06:38:08;;;;;;;1.57;0.70;;;9.70;99.90;;;;;;4994725;28;20781;-72
2024/02/05 06:40:34;;;;;;;1.53;0.93;;;9.80;99.90;;;;;;4994839;28;20409;-71
2024/02/05 06:42:59;;;;;;;1.37;0.80;;;9.70;99.90;;;;;;4995076;28;20164;-71
2024/02/05 06:45:25;;;;;;;2.03;1.13;;;9.70;99.90;;;;;;4994855;28;20205;-70
2024/02/05 06:47:54;;;;;;;1.63;0.77;;;9.60;99.90;;;;;;4994870;28;20299;-71
2024/02/05 06:50:19;;;;;;;1.10;0.70;;;9.60;99.90;;;;;;4981637;28;20255;-71
2024/02/05 06:52:45;;;;;;;1.00;0.80;;;9.70;99.90;;;;;;4976034;28;20442;-71
2024/02/05 06:55:11;;;;;;;2.30;1.30;;;9.70;99.90;;;;;;4974093;28;20207;-73
2024/02/05 06:57:37;;;;;;;1.33;0.70;;;9.70;99.90;;;;;;4975645;28;20435;-70
2024/02/05 07:00:04;;;;;;;1.87;0.70;;;9.70;99.90;;;;;;4987236;28;20397;-71
2024/02/05 07:02:29;;;;;;;1.20;0.73;;;9.70;99.90;;;;;;4994932;28;20171;-70
2024/02/05 07:04:56;;;;;;;1.00;0.60;;;9.70;99.90;;;;;;4995211;28;20421;-70
2024/02/05 07:07:22;;;;;;;1.60;0.90;;;9.60;99.90;;;;;;4993688;28;20192;-70
2024/02/05 07:09:48;;;;;;;1.10;0.80;;;9.70;99.90;;;;;;4984187;28;20466;-71
2024/02/05 07:12:14;;;;;;;1.50;0.70;;;9.70;99.90;;;;;;4975666;28;20829;-70
2024/02/05 07:14:40;;;;;;;1.00;0.90;;;9.60;99.90;;;;;;4978211;28;20604;-71
2024/02/05 07:17:05;;;;;;;1.10;0.67;;;9.60;99.90;;;;;;4975050;28;20215;-71
2024/02/05 07:19:31;;;;;;;1.10;0.90;;;9.40;99.90;;;;;;4982192;28;20650;-71
2024/02/05 07:21:57;;;;;;;2.13;0.93;;;9.50;99.90;;;;;;4993883;28;20174;-71
2024/02/05 07:24:22;;;;;;;0.97;0.80;;;9.60;99.90;;;;;;4993847;28;20171;-72
2024/02/05 07:26:48;;;;;;;1.50;0.80;;;9.50;99.90;;;;;;4992858;28;20190;-71
2024/02/05 07:29:13;;;;;;;1.50;0.80;;;9.50;99.90;;;;;;4990442;28;20258;-71
2024/02/05 07:31:39;;;;;;;1.13;0.93;;;9.50;99.90;;;;;;4975677;28;20566;-70
2024/02/05 07:34:05;;;;;;;1.30;1.10;;;9.50;99.90;;;;;;4975489;28;20182;-71
2024/02/05 07:36:30;;;;;;;1.10;1.00;;;9.50;99.90;;;;;;4975620;28;20207;-70
2024/02/05 07:38:56;;;;;;;1.70;1.13;;;9.50;99.90;;;;;;4976922;28;20265;-70
2024/02/05 07:41:21;;;;;;;1.10;1.00;;;9.40;99.90;;;;;;4995138;28;20178;-70
2024/02/05 07:43:47;;;;;;;1.17;0.80;;;9.50;99.90;;;;;;4993919;28;20168;-71
2024/02/05 07:46:13;;;;;;;1.20;0.93;;;9.40;99.90;;;;;;4994541;28;20201;-71
2024/02/05 07:48:38;;;;;;;1.50;1.10;;;9.30;99.90;;;;;;4995266;28;20169;-71
2024/02/05 07:51:04;;;;;;;1.97;1.07;;;9.50;99.90;;;;;;4979032;28;20175;-70
2024/02/05 07:53:30;;;;;;;0.97;0.80;;;9.60;99.90;;;;;;4978865;28;20173;-71
2024/02/05 07:55:56;;;;;;;1.00;0.83;;;9.60;99.90;;;;;;4979088;28;20289;-71
2024/02/05 07:58:22;;;;;;;4.67;1.00;;;9.80;99.90;;;;;;4979015;28;20461;-71
2024/02/05 08:00:48;;;;;;;1.47;1.10;;;9.50;99.90;;;;;;4995495;28;20637;-71
2024/02/05 08:03:14;;;;;;;1.13;0.87;;;9.70;99.90;;;;;;4998620;28;20409;-71
2024/02/05 08:05:40;;;;;;;1.47;0.93;;;9.70;99.90;;;;;;4998457;28;20217;-70
2024/02/05 08:08:05;;;;;;;7.13;1.20;;;9.70;99.90;;;;;;4998335;28;20506;-70
2024/02/05 08:10:31;;;;;;;1.20;1.07;;;9.70;99.90;;;;;;4984415;28;20206;-70
2024/02/05 08:12:57;;;;;;;1.40;1.10;;;9.50;99.90;;;;;;4995480;28;20534;-70
2024/02/05 08:15:22;;;;;;;1.20;0.90;;;9.50;99.90;;;;;;4996386;28;20671;-71
2024/02/05 08:17:48;;;;;;;1.33;1.00;;;9.50;99.90;;;;;;4978993;28;20720;-71
2024/02/05 08:20:14;;;;;;;1.37;0.93;;;9.40;99.90;;;;;;4990735;28;20264;-71
2024/02/05 08:22:40;;;;;;;1.60;1.07;;;9.40;99.90;;;;;;4997843;28;20170;-71
2024/02/05 08:25:06;;;;;;;2.83;1.13;;;9.50;99.90;;;;;;4998638;28;20233;-71
2024/02/05 08:27:33;;;;;;;1.37;0.93;;;9.60;99.90;;;;;;4997111;28;20446;-71
2024/02/05 08:29:59;;;;;;;1.90;1.20;;;9.60;99.90;;;;;;4988347;28;20421;-70
2024/02/05 08:32:24;;;;;;;1.70;0.90;;;9.60;99.90;;;;;;4978818;28;20411;-71
2024/02/05 08:34:50;;;;;;;3.10;1.50;;;9.70;99.90;;;;;;4978497;28;20903;-71
2024/02/05 08:37:16;;;;;;;2.17;1.07;;;9.70;99.90;;;;;;4978049;28;20193;-71
2024/02/05 08:39:41;;;;;;;1.97;1.10;;;9.90;99.90;;;;;;4978121;28;20229;-71
2024/02/05 08:42:07;;;;;;;2.33;0.93;;;9.70;99.90;;;;;;4976910;28;20663;-71
2024/02/05 08:44:32;;;;;;;1.10;0.80;;;9.70;99.90;;;;;;4978914;28;20205;-71
2024/02/05 08:46:58;;;;;;;1.50;1.33;;;9.80;99.90;;;;;;4978976;28;20695;-70
2024/02/05 08:49:23;;;;;;;3.07;1.50;;;9.70;99.90;;;;;;4983761;28;20169;-69
2024/02/05 08:51:49;;;;;;;1.10;0.80;;;9.70;99.90;;;;;;4998255;28;20180;-70
2024/02/05 08:54:15;;;;;;;1.00;0.83;;;9.70;99.90;;;;;;4998381;28;20260;-70
2024/02/05 08:56:40;;;;;;;1.50;0.97;;;9.70;99.90;;;;;;4998234;28;20215;-72
2024/02/05 08:59:06;;;;;;;2.27;1.23;;;9.60;99.90;;;;;;4996345;28;20259;-71
2024/02/05 09:01:32;;;;;;;1.43;0.90;;;9.70;99.90;;;;;;4977847;28;20178;-71
2024/02/05 09:03:58;;;;;;;1.60;1.00;;;9.90;99.90;;;;;;4978999;28;20537;-71
2024/02/05 09:06:23;;;;;;;1.10;0.97;;;9.90;99.90;;;;;;4977999;28;20425;-71
2024/02/05 09:08:49;;;;;;;1.37;0.87;;;9.80;99.90;;;;;;4978001;28;20237;-71
2024/02/05 09:11:15;;;;;;;1.20;0.97;;;9.80;99.90;;;;;;4996663;28;20193;-71
2024/02/05 09:13:40;;;;;;;2.13;0.90;;;9.70;99.90;;;;;;4997463;28;20275;-72
2024/02/05 09:16:06;;;;;;;1.33;0.90;;;9.70;99.90;;;;;;4995811;28;20197;-71
2024/02/05 09:18:32;;;;;;;1.73;1.13;;;9.90;99.90;;;;;;4997676;28;20163;-71
2024/02/05 09:20:58;;;;;;;2.83;1.10;;;9.80;99.90;;;;;;4993876;28;20176;-72
2024/02/05 09:23:23;;;;;;;1.73;0.90;;;9.80;99.90;;;;;;4997176;28;20166;-71
2024/02/05 09:25:49;;;;;;;2.00;0.90;;;9.90;99.90;;;;;;4996128;28;20417;-71
2024/02/05 09:28:14;;;;;;;2.47;1.20;;;9.90;99.90;;;;;;4996668;28;20198;-71
2024/02/05 09:30:40;;;;;;;3.27;1.17;;;10.10;99.90;;;;;;4983016;28;20533;-71
2024/02/05 09:33:07;;;;;;;2.50;1.10;;;10.10;99.90;;;;;;4977246;28;20172;-71
2024/02/05 09:35:33;;;;;;;2.73;1.60;;;10.20;99.90;;;;;;4977179;28;20274;-71
2024/02/05 09:37:58;;;;;;;1.30;0.90;;;10.20;99.90;;;;;;4977250;28;20460;-71
2024/02/05 09:40:25;;;;;;;2.77;1.00;;;10.10;99.90;;;;;;4987290;28;20179;-71
2024/02/05 09:42:52;;;;;;;3.50;1.13;;;10.00;99.90;;;;;;4996912;28;20257;-70
2024/02/05 09:45:18;;;;;;;1.53;1.17;;;10.00;99.90;;;;;;4996186;28;20474;-71
2024/02/05 09:47:45;;;;;;;4.80;1.10;;;10.10;99.90;;;;;;4996494;28;20453;-72
2024/02/05 09:50:14;;;;;;;2.27;1.20;;;10.30;99.90;;;;;;4986592;28;20478;-71
2024/02/05 09:52:42;;;;;;;2.40;1.10;;;10.50;99.90;;;;;;4977408;28;20415;-72
2024/02/05 09:55:13;;;;;;;2.37;1.00;;;10.80;99.90;;;;;;4976661;28;20408;-71
2024/02/05 09:57:40;;;;;;;1.77;0.97;;;10.80;99.90;;;;;;4977409;28;20427;-71
2024/02/05 10:00:09;;;;;;;2.00;1.23;;;10.80;99.90;;;;;;4985834;28;20415;-72
2024/02/05 10:02:36;;;;;;;2.37;1.00;;;10.90;99.90;;;;;;4996232;28;20747;-71
2024/02/05 10:05:03;;;;;;;2.13;1.13;;;11.00;99.90;;;;;;4996645;28;20407;-71
2024/02/05 10:07:31;;;;;;;2.73;1.17;;;11.00;99.90;;;;;;4995617;28;20415;-70
2024/02/05 10:10:00;;;;;;;1.70;1.40;;;10.90;99.90;;;;;;4995500;28;20972;-71
2024/02/05 10:12:26;;;;;;;4.03;1.00;;;11.10;99.90;;;;;;4995592;28;20415;-72
2024/02/05 10:14:52;;;;;;;3.17;1.10;;;11.30;99.90;;;;;;4996043;28;20921;-72
2024/02/05 10:17:18;;;;;;;3.40;1.20;;;11.20;99.90;;;;;;4983683;28;20228;-71
2024/02/05 10:19:45;;;;;;;2.90;1.10;;;11.10;99.90;;;;;;4992691;28;20273;-71
2024/02/05 10:22:11;;;;;;;5.27;1.30;;;11.10;99.90;;;;;;4996488;28;20440;-70
2024/02/05 10:24:40;;;;;;;2.30;1.47;;;11.30;99.90;;;;;;4996460;28;20169;-71
2024/02/05 10:27:06;;;;;;;4.20;1.20;;;11.10;99.90;;;;;;4996459;28;20235;-70
2024/02/05 10:29:31;;;;;;;3.23;1.37;;;11.20;99.90;;;;;;4982525;28;20445;-72
2024/02/05 10:31:58;;;;;;;1.83;1.10;;;11.30;99.90;;;;;;4976531;28;20178;-72
2024/02/05 10:34:24;;;;;;;6.33;1.20;;;11.40;99.90;;;;;;4976249;28;20193;-71
2024/02/05 10:36:51;;;;;;;4.13;1.20;;;11.30;99.90;;;;;;4976331;28;20493;-72
2024/02/05 10:39:24;;;;;;;4.37;1.80;;;11.40;99.90;;;;;;4986290;28;20420;-71
2024/02/05 10:41:52;;;;;;;3.57;1.30;;;11.60;99.90;;;;;;4993538;28;20480;-71
2024/02/05 10:44:18;;;;;;;3.80;1.53;;;11.80;99.90;;;;;;4994877;28;20411;-71
2024/02/05 10:46:45;;;;;;;4.77;1.67;;;11.50;99.90;;;;;;5018477;23;20451;-70
2024/02/05 10:49:11;;;;;;;2.70;1.00;;;11.50;99.90;;;;;;4992865;28;20469;-72
2024/02/05 10:51:39;;;;;;;7.47;1.23;;;11.50;99.90;;;;;;4994117;28;20498;-71
2024/02/05 10:54:05;;;;;;;3.80;1.70;;;11.70;99.90;;;;;;5009106;28;20439;-71
2024/02/05 10:56:31;;;;;;;4.50;1.83;;;11.70;99.90;;;;;;4994235;28;20458;-71
2024/02/05 10:58:59;;;;;;;2.73;1.60;;;11.80;99.90;;;;;;4993832;28;20457;-71
2024/02/05 11:01:30;;;;;;;3.20;1.53;;;12.00;99.90;;;;;;4994053;28;20412;-70
2024/02/05 11:04:01;;;;;;;2.80;1.20;;;12.00;99.90;;;;;;4993889;28;20969;-71
2024/02/05 11:06:29;;;;;;;2.10;1.10;;;12.00;99.90;;;;;;4993801;28;20392;-71
2024/02/05 11:08:55;;;;;;;3.97;1.57;;;12.00;99.90;;;;;;4985483;28;20505;-71
2024/02/05 11:11:21;;;;;;;1.63;1.10;;;12.20;99.90;;;;;;4974533;28;20409;-71
2024/02/05 11:13:59;;;;;;;2.00;1.00;;;12.30;99.90;;;;;;4974315;28;20408;-71
2024/02/05 11:16:25;;;;;;;2.43;1.10;;;12.70;99.90;;;;;;4974559;28;20245;-71
2024/02/05 11:18:55;;;;;;;3.53;1.10;;;13.60;99.90;;;;;;4981789;28;20446;-72
2024/02/05 11:21:35;;;;;;;5.27;1.13;;;15.30;99.90;;;;;;4993956;28;20407;-71
2024/02/05 11:24:03;;;;;;;2.53;1.50;;;16.80;99.90;;;;;;4993428;28;20376;-71
2024/02/05 11:26:29;;;;;;;4.00;1.37;;;17.60;99.40;;;;;;4993453;28;20509;-72
2024/02/05 11:28:54;;;;;;;2.60;1.37;;;17.90;97.40;;;;;;4982730;28;20924;-72
2024/02/05 11:31:26;;;;;;;1.67;1.07;;;18.30;97.20;;;;;;4973952;28;20899;-72
2024/02/05 11:33:58;;;;;;;2.60;1.20;;;19.40;95.10;;;;;;4974699;28;20169;-71
2024/02/05 11:36:26;;;;;;;4.57;1.50;;;19.80;93.60;;;;;;4974408;28;20582;-70
2024/02/05 11:39:03;;;;;;;6.13;1.10;;;19.10;93.00;;;;;;4981205;28;20411;-71
2024/02/05 11:41:29;;;;;;;1.30;1.10;;;18.60;93.50;;;;;;4993637;28;20380;-71
2024/02/05 11:44:14;;;;;;;3.40;1.30;;;19.00;93.50;;;;;;4993752;28;20450;-71
2024/02/05 11:46:41;;;;;;;2.97;1.13;;;20.30;92.20;;;;;;4993402;28;20244;-71
2024/02/05 11:49:07;;;;;;;5.93;1.53;;;21.00;90.30;;;;;;4984338;28;20427;-71
2024/02/05 11:51:33;;;;;;;4.30;1.07;;;20.60;90.20;;;;;;4974629;28;20492;-71
2024/02/05 11:53:59;;;;;;;2.30;1.27;;;21.70;88.80;;;;;;4973907;28;20181;-71
2024/02/05 11:56:25;;;;;;;5.10;1.90;;;20.70;87.30;;;;;;4974066;28;20328;-71
2024/02/05 11:58:50;;;;;;;3.50;1.30;;;20.60;87.60;;;;;;4980638;28;20431;-71
2024/02/05 12:01:17;;;;;;;3.50;1.37;;;20.20;88.20;;;;;;4993598;28;20807;-72
2024/02/05 12:03:46;;;;;;;3.67;1.47;;;20.20;87.70;;;;;;4993564;28;20179;-71
2024/02/05 12:06:14;;;;;;;6.60;1.90;;;20.60;86.70;;;;;;4992974;28;20447;-71
2024/02/05 12:08:45;;;;;;;9.23;1.97;;;20.90;85.30;;;;;;4993325;28;20432;-72
2024/02/05 12:11:12;;;;;;;1.73;1.20;;;21.80;83.40;;;;;;4992773;28;20909;-72
2024/02/05 12:13:39;;;;;;;6.87;2.00;;;21.80;81.10;;;;;;4993336;28;20411;-72
2024/02/05 12:16:12;;;;;;;4.83;1.77;;;20.80;83.30;;;;;;4993615;28;20494;-72
2024/02/05 12:18:38;;;;;;;6.67;1.90;;;19.90;84.70;;;;;;4988904;28;20487;-71
2024/02/05 12:21:06;;;;;;;7.87;2.03;;;20.20;85.80;;;;;;4974015;28;20496;-72
2024/02/05 12:23:33;;;;;;;4.07;1.57;;;20.40;83.60;;;;;;4973823;28;20401;-72
2024/02/05 12:25:58;;;;;;;2.73;1.40;;;20.10;84.00;;;;;;4973854;28;20409;-72
2024/02/05 12:28:24;;;;;;;4.27;2.33;;;20.20;83.20;;;;;;4976880;28;20428;-72
2024/02/05 12:30:57;;;;;;;3.70;1.77;;;20.50;85.10;;;;;;4993901;28;20172;-71
2024/02/05 12:33:22;;;;;;;5.00;1.60;;;20.70;82.50;;;;;;4993130;28;20173;-72
2024/02/05 12:36:00;;;;;;;3.67;1.50;;;21.60;79.70;;;;;;4993689;28;20454;-71
2024/02/05 12:38:27;;;;;;;4.10;1.60;;;21.00;81.40;;;;;;4993590;28;20308;-72
2024/02/05 12:40:54;;;;;;;2.90;1.30;;;21.60;80.40;;;;;;4977235;28;20407;-72
2024/02/05 12:43:24;;;;;;;7.40;1.90;;;21.40;79.30;;;;;;4977229;28;20420;-71
2024/02/05 12:45:51;;;;;;;3.50;1.53;;;22.40;78.20;;;;;;4977210;28;20416;-72
2024/02/05 12:48:20;;;;;;;5.10;1.27;;;21.50;77.70;;;;;;4978476;28;20448;-72
2024/02/05 12:50:45;;;;;;;4.27;1.40;;;22.90;77.20;;;;;;4996726;28;20460;-71